Time;durP1;ratioP1;P1;durP2;ratioP2;P2;SDS_P1;SDS_P2;PMS_P1;PMS_P2;Temp;Humidity;BMP_temperature;BMP_pressure;BME280_temperature;BME280_humidity;BME280_pressure;Samples;Min_cycle;Max_cycle;Signal;HPM_P1;HPM_P2
2023/03/11 00:00:31;;;;;;;9.73;2.40;;;-0.20;99.90;;;;;;5055359;28;20103;-56
2023/03/11 00:02:59;;;;;;;8.38;1.85;;;-0.30;99.90;;;;;;5055856;28;20791;-49
2023/03/11 00:05:30;;;;;;;13.27;2.03;;;-0.30;99.90;;;;;;5055676;28;20102;-50
2023/03/11 00:07:56;;;;;;;9.07;2.65;;;-0.30;99.90;;;;;;5055640;28;20151;-44
2023/03/11 00:10:33;;;;;;;10.20;2.25;;;-0.40;99.90;;;;;;5055786;28;20219;-50
2023/03/11 00:13:00;;;;;;;10.73;2.72;;;-0.50;99.90;;;;;;5055499;28;20133;-47
2023/03/11 00:15:27;;;;;;;7.28;1.95;;;-0.40;99.90;;;;;;5054662;28;20501;-50
2023/03/11 00:17:53;;;;;;;11.32;2.17;;;-0.50;99.90;;;;;;5055497;28;20049;-49
2023/03/11 00:20:29;;;;;;;9.63;2.17;;;-0.50;99.90;;;;;;5055613;28;20486;-59
2023/03/11 00:22:55;;;;;;;10.75;2.17;;;-0.50;99.90;;;;;;5054414;28;20044;-45
2023/03/11 00:25:24;;;;;;;10.20;2.50;;;-0.50;99.90;;;;;;5055813;28;20056;-42
2023/03/11 00:27:50;;;;;;;14.80;2.65;;;-0.40;99.90;;;;;;5055116;28;20040;-55
2023/03/11 00:30:17;;;;;;;13.93;1.83;;;-0.60;99.90;;;;;;5055488;28;20517;-54
2023/03/11 00:32:43;;;;;;;10.95;2.28;;;-0.60;99.90;;;;;;5055018;28;20044;-56
2023/03/11 00:35:14;;;;;;;6.43;1.85;;;-0.50;99.90;;;;;;5054188;28;20055;-58
2023/03/11 00:37:40;;;;;;;9.63;1.73;;;-0.60;99.90;;;;;;5054670;28;20127;-53
2023/03/11 00:40:07;;;;;;;5.70;1.63;;;-0.50;99.90;;;;;;5051994;28;20467;-53
2023/03/11 00:42:33;;;;;;;8.15;1.33;;;-0.50;99.90;;;;;;5067789;28;20302;-57
2023/03/11 00:44:59;;;;;;;7.55;2.00;;;-0.50;99.90;;;;;;5075580;28;20410;-50
2023/03/11 00:47:24;;;;;;;15.45;1.90;;;-0.50;99.90;;;;;;5075128;28;20470;-45
2023/03/11 00:49:50;;;;;;;9.27;1.70;;;-0.60;99.90;;;;;;5075604;28;20178;-56
2023/03/11 00:52:15;;;;;;;9.52;1.70;;;-0.60;99.90;;;;;;5067219;28;20390;-46
2023/03/11 00:54:41;;;;;;;3.47;1.30;;;-0.70;99.90;;;;;;5053982;28;20542;-43
2023/03/11 00:57:07;;;;;;;8.10;2.30;;;-0.70;99.90;;;;;;5048751;28;20041;-60
2023/03/11 00:59:34;;;;;;;10.05;2.08;;;-0.70;99.90;;;;;;5072618;28;20052;-49
2023/03/11 01:01:59;;;;;;;7.28;1.45;;;-0.80;99.90;;;;;;5062418;28;20056;-51
2023/03/11 01:04:25;;;;;;;4.80;1.63;;;-0.90;99.90;;;;;;5074731;28;20378;-52
2023/03/11 01:06:51;;;;;;;7.10;1.88;;;-0.80;99.90;;;;;;5074199;28;20052;-48
2023/03/11 01:09:17;;;;;;;7.53;1.85;;;-0.80;99.90;;;;;;5075133;28;20135;-53
2023/03/11 01:11:43;;;;;;;7.43;1.90;;;-0.80;99.90;;;;;;5073896;28;20395;-51
2023/03/11 01:14:08;;;;;;;10.05;2.03;;;-0.70;99.90;;;;;;5072788;28;20121;-59
2023/03/11 01:16:35;;;;;;;8.63;2.55;;;-0.80;99.90;;;;;;5074392;28;20079;-56
2023/03/11 01:19:01;;;;;;;10.18;2.05;;;-0.70;99.90;;;;;;5074644;28;20488;-43
2023/03/11 01:21:27;;;;;;;6.53;1.92;;;-0.80;99.90;;;;;;5074544;28;20044;-55
2023/03/11 01:23:52;;;;;;;7.93;1.90;;;-0.90;99.90;;;;;;5075520;28;20055;-55
2023/03/11 01:26:18;;;;;;;16.15;1.90;;;-0.70;99.90;;;;;;5074723;28;20455;-51
2023/03/11 01:28:43;;;;;;;5.93;1.45;;;-0.90;99.90;;;;;;5074899;28;20101;-57
2023/03/11 01:31:09;;;;;;;8.23;2.38;;;-0.80;99.90;;;;;;5074429;28;20044;-57
2023/03/11 01:33:35;;;;;;;5.70;1.50;;;-0.90;99.90;;;;;;5072548;28;20048;-59
2023/03/11 01:36:01;;;;;;;4.90;1.50;;;-0.90;99.90;;;;;;5073933;28;20044;-58
2023/03/11 01:38:27;;;;;;;5.95;1.30;;;-0.90;99.90;;;;;;5037728;28;20041;-54
2023/03/11 01:40:53;;;;;;;9.20;1.35;;;-0.80;99.90;;;;;;5054114;28;20659;-50
2023/03/11 01:43:40;;;;;;;7.68;1.58;;;-0.80;99.90;;;;;;5071971;28;20040;-58
2023/03/11 01:46:12;;;;;;;2.72;1.30;;;-0.80;99.90;;;;;;5072480;28;20079;-57
2023/03/11 01:48:38;;;;;;;3.75;1.35;;;-0.90;99.90;;;;;;5036074;28;20051;-58
2023/03/11 01:51:06;;;;;;;8.88;1.35;;;-0.90;99.90;;;;;;5052592;28;20051;-55
2023/03/11 01:53:32;;;;;;;5.30;1.63;;;-0.80;99.90;;;;;;5048626;28;20165;-56
2023/03/11 01:56:00;;;;;;;7.53;1.63;;;-0.80;99.90;;;;;;5049233;28;20834;-54
2023/03/11 01:58:30;;;;;;;5.07;1.63;;;-0.90;99.90;;;;;;5053641;28;20079;-53
2023/03/11 02:00:58;;;;;;;5.75;1.27;;;-0.70;99.90;;;;;;5057401;28;20248;-54
2023/03/11 02:03:31;;;;;;;5.43;1.40;;;-0.90;99.90;;;;;;5073982;28;20043;-50
2023/03/11 02:06:00;;;;;;;6.35;1.50;;;-0.80;99.90;;;;;;5069142;28;20041;-57
2023/03/11 02:08:28;;;;;;;7.00;1.52;;;-0.80;99.90;;;;;;5053326;28;20056;-50
2023/03/11 02:10:55;;;;;;;4.78;1.58;;;-0.90;99.90;;;;;;5072519;28;20036;-46
2023/03/11 02:13:22;;;;;;;6.43;1.77;;;-0.90;99.90;;;;;;5073110;28;20052;-55
2023/03/11 02:15:47;;;;;;;5.68;1.58;;;-1.00;99.90;;;;;;5066674;28;20566;-47
2023/03/11 02:18:14;;;;;;;6.70;1.40;;;-1.10;99.90;;;;;;5066711;28;20104;-51
2023/03/11 02:20:56;;;;;;;6.82;1.48;;;-1.10;99.90;;;;;;5073979;28;20182;-58
2023/03/11 02:23:29;;;;;;;5.53;1.80;;;-1.20;99.90;;;;;;5072554;28;20543;-52
2023/03/11 02:26:11;;;;;;;8.10;1.67;;;-1.20;99.90;;;;;;5073906;28;20044;-42
2023/03/11 02:28:39;;;;;;;3.08;1.63;;;-1.30;99.90;;;;;;5073821;28;20048;-59
2023/03/11 02:31:05;;;;;;;5.30;1.65;;;-1.40;99.90;;;;;;5061200;28;20528;-41
2023/03/11 02:33:31;;;;;;;5.82;1.52;;;-1.30;99.90;;;;;;5059444;28;20044;-54
2023/03/11 02:35:57;;;;;;;4.95;1.52;;;-1.30;99.90;;;;;;5073650;28;20106;-49
2023/03/11 02:38:23;;;;;;;5.90;1.38;;;-1.40;99.90;;;;;;5038381;28;20869;-58
2023/03/11 02:40:56;;;;;;;6.65;1.60;;;-1.40;99.90;;;;;;5054024;28;20427;-54
2023/03/11 02:43:27;;;;;;;7.60;1.50;;;-1.40;99.90;;;;;;5052533;28;20055;-54
2023/03/11 02:45:53;;;;;;;6.43;1.20;;;-1.60;99.90;;;;;;5053585;28;20331;-55
2023/03/11 02:48:20;;;;;;;8.50;1.60;;;-1.60;99.90;;;;;;5072179;28;20128;-53
2023/03/11 02:50:46;;;;;;;9.30;1.85;;;-1.70;99.90;;;;;;5073345;28;20076;-45
2023/03/11 02:53:12;;;;;;;4.13;1.20;;;-1.70;99.90;;;;;;5048166;28;20044;-46
2023/03/11 02:55:37;;;;;;;9.63;2.28;;;-1.90;99.90;;;;;;5058688;28;20048;-50
2023/03/11 02:58:03;;;;;;;3.17;1.38;;;-1.80;99.90;;;;;;5072350;28;20349;-53
2023/03/11 03:00:29;;;;;;;5.18;1.50;;;-1.80;99.90;;;;;;5056326;28;20048;-50
2023/03/11 03:02:55;;;;;;;6.43;1.20;;;-1.80;99.90;;;;;;5043725;28;20059;-50
2023/03/11 03:05:21;;;;;;;5.05;1.85;;;-1.80;99.90;;;;;;5070857;28;20047;-52
2023/03/11 03:07:48;;;;;;;6.82;1.50;;;-1.80;99.90;;;;;;5058497;28;20048;-51
2023/03/11 03:10:15;;;;;;;8.93;1.40;;;-1.70;99.90;;;;;;5059394;28;20526;-51
2023/03/11 03:12:41;;;;;;;4.75;1.58;;;-1.70;99.90;;;;;;5072624;28;20140;-43
2023/03/11 03:15:07;;;;;;;5.88;1.70;;;-1.70;99.90;;;;;;5073779;28;20048;-59
2023/03/11 03:17:33;;;;;;;5.47;1.63;;;-1.70;99.90;;;;;;5072637;28;20195;-52
2023/03/11 03:19:59;;;;;;;10.45;1.52;;;-1.80;99.90;;;;;;5071692;28;20089;-51
2023/03/11 03:22:26;;;;;;;4.22;1.45;;;-1.90;99.90;;;;;;5072607;28;20546;-41
2023/03/11 03:24:52;;;;;;;5.82;1.35;;;-1.90;99.90;;;;;;5073426;28;20063;-46
2023/03/11 03:27:18;;;;;;;7.13;1.50;;;-1.90;99.90;;;;;;5072620;28;20131;-57
2023/03/11 03:29:44;;;;;;;6.13;1.48;;;-1.00;99.90;;;;;;5072488;28;20059;-49
2023/03/11 03:32:10;;;;;;;6.75;1.48;;;-0.60;99.90;;;;;;5071750;28;20048;-45
2023/03/11 03:34:35;;;;;;;8.10;1.70;;;-0.50;99.90;;;;;;5073403;28;20068;-43
2023/03/11 03:37:01;;;;;;;7.78;1.60;;;-0.40;99.90;;;;;;5061142;28;20037;-50
2023/03/11 03:39:27;;;;;;;4.15;1.52;;;-0.40;99.90;;;;;;5048609;28;20036;-47
2023/03/11 03:41:53;;;;;;;11.07;1.85;;;-0.50;99.90;;;;;;5056851;28;20051;-50
2023/03/11 03:44:18;;;;;;;7.85;1.73;;;-0.60;99.90;;;;;;5055461;28;20090;-52
2023/03/11 03:46:44;;;;;;;4.07;1.52;;;-0.70;99.90;;;;;;5055081;28;20047;-52
2023/03/11 03:49:09;;;;;;;5.60;2.58;;;-0.90;99.90;;;;;;5055940;28;20040;-49
2023/03/11 03:51:35;;;;;;;4.72;1.40;;;-1.00;99.90;;;;;;5056431;28;20178;-46
2023/03/11 03:54:01;;;;;;;8.43;1.70;;;-1.00;99.90;;;;;;5049835;28;20080;-47
2023/03/11 03:56:27;;;;;;;6.50;1.95;;;-1.20;99.90;;;;;;5057709;28;20040;-50
2023/03/11 03:58:53;;;;;;;5.15;1.60;;;-1.20;99.90;;;;;;5075696;28;20557;-51
2023/03/11 04:01:19;;;;;;;7.57;1.85;;;-1.40;99.90;;;;;;5073677;28;20143;-45
2023/03/11 04:03:44;;;;;;;5.00;1.90;;;-1.80;99.90;;;;;;5055473;28;20067;-50
2023/03/11 04:06:20;;;;;;;6.35;1.60;;;-2.10;99.90;;;;;;5055585;28;20045;-48
2023/03/11 04:08:46;;;;;;;9.20;2.25;;;-2.20;99.90;;;;;;5054990;28;20498;-45
2023/03/11 04:11:12;;;;;;;6.93;1.70;;;-2.30;99.90;;;;;;5055038;28;20063;-44
2023/03/11 04:13:37;;;;;;;7.15;1.77;;;-2.40;99.90;;;;;;5071165;28;20036;-50
2023/03/11 04:16:05;;;;;;;7.75;1.70;;;-2.50;99.90;;;;;;5076127;28;20441;-51
2023/03/11 04:18:31;;;;;;;4.40;1.90;;;-2.50;99.90;;;;;;5075538;28;20052;-40
2023/03/11 04:20:57;;;;;;;5.35;1.38;;;-2.60;99.90;;;;;;5075018;28;20059;-49
2023/03/11 04:23:22;;;;;;;4.50;1.45;;;-2.60;99.90;;;;;;5074659;28;20442;-39
2023/03/11 04:25:48;;;;;;;5.03;1.80;;;-2.70;99.90;;;;;;5075812;28;20040;-52
2023/03/11 04:28:14;;;;;;;7.18;1.50;;;-2.80;99.90;;;;;;5075600;28;20176;-50
2023/03/11 04:30:40;;;;;;;3.63;1.42;;;-2.80;99.90;;;;;;5076102;28;20052;-46
2023/03/11 04:33:05;;;;;;;2.10;1.05;;;-2.80;99.90;;;;;;5075490;28;20047;-44
2023/03/11 04:35:31;;;;;;;6.07;1.40;;;-2.80;99.90;;;;;;5067791;28;20106;-39
2023/03/11 04:37:57;;;;;;;10.18;1.48;;;-2.80;99.90;;;;;;5066846;28;20083;-45
2023/03/11 04:40:22;;;;;;;4.32;1.58;;;-2.80;99.90;;;;;;5050910;28;20052;-53
2023/03/11 04:42:48;;;;;;;4.10;1.40;;;-2.90;99.90;;;;;;5054787;28;20148;-46
2023/03/11 04:45:14;;;;;;;4.55;2.30;;;-3.00;99.90;;;;;;5055135;28;20224;-47
2023/03/11 04:47:39;;;;;;;4.70;1.45;;;-3.00;99.90;;;;;;5053769;28;20619;-55
2023/03/11 04:50:05;;;;;;;3.60;1.52;;;-3.00;99.90;;;;;;5054997;28;20435;-52
2023/03/11 04:52:31;;;;;;;5.85;1.50;;;-3.00;99.90;;;;;;5049737;28;20049;-43
2023/03/11 04:54:56;;;;;;;5.95;1.70;;;-3.00;99.90;;;;;;5053786;28;20131;-43
2023/03/11 04:57:22;;;;;;;11.98;2.58;;;-3.00;99.90;;;;;;5049007;28;20394;-42
2023/03/11 04:59:48;;;;;;;12.82;2.38;;;-3.00;99.90;;;;;;5060446;28;20143;-49
2023/03/11 05:02:13;;;;;;;5.85;2.22;;;-3.00;99.90;;;;;;5044497;28;20064;-44
2023/03/11 05:04:39;;;;;;;5.13;2.13;;;-3.00;99.90;;;;;;5052907;28;20044;-51
2023/03/11 05:07:05;;;;;;;8.75;2.45;;;-3.00;99.90;;;;;;5053542;28;20366;-56
2023/03/11 05:09:30;;;;;;;7.40;2.10;;;-2.90;99.90;;;;;;5054774;28;20131;-48
2023/03/11 05:11:56;;;;;;;9.00;3.67;;;-2.90;99.90;;;;;;5068640;28;20044;-52
2023/03/11 05:14:22;;;;;;;9.25;3.75;;;-3.00;99.90;;;;;;5074608;28;20058;-44
2023/03/11 05:16:47;;;;;;;10.88;5.63;;;-3.00;99.90;;;;;;5074097;28;20040;-48
2023/03/11 05:22:11;;;;;;;10.80;3.25;;;-3.00;99.90;;;;;;5033689;28;20044;-45
2023/03/11 05:24:37;;;;;;;16.38;8.88;;;-3.10;99.90;;;;;;5051108;28;20383;-54
2023/03/11 05:27:03;;;;;;;14.95;8.48;;;-3.10;99.90;;;;;;5051247;28;20040;-45
2023/03/11 05:29:29;;;;;;;12.98;6.50;;;-3.10;99.90;;;;;;5051051;28;20517;-52
2023/03/11 05:31:54;;;;;;;12.65;6.22;;;-3.10;99.90;;;;;;5050228;28;20527;-41
2023/03/11 05:34:20;;;;;;;9.20;3.70;;;-3.10;99.90;;;;;;5036646;28;20087;-51
2023/03/11 05:36:46;;;;;;;8.27;2.63;;;-3.20;99.90;;;;;;5030263;28;20092;-49
2023/03/11 05:39:12;;;;;;;9.57;2.13;;;-3.20;99.90;;;;;;5030158;28;20057;-48
2023/03/11 05:41:38;;;;;;;6.78;1.88;;;-3.20;99.90;;;;;;5030569;28;20091;-47
2023/03/11 05:44:04;;;;;;;3.47;1.65;;;-3.20;99.90;;;;;;5031422;28;20059;-42
2023/03/11 05:46:31;;;;;;;4.78;1.50;;;-3.30;99.90;;;;;;5030276;28;20044;-43
2023/03/11 05:48:58;;;;;;;6.20;2.42;;;-3.30;99.90;;;;;;5031127;28;20439;-41
2023/03/11 05:51:24;;;;;;;9.55;2.78;;;-3.30;99.90;;;;;;5029528;28;20098;-39
2023/03/11 05:53:50;;;;;;;10.65;3.50;;;-3.40;99.90;;;;;;5042340;28;20046;-45
2023/03/11 05:56:17;;;;;;;17.20;5.57;;;-3.40;99.90;;;;;;5040993;28;20153;-42
2023/03/11 05:58:43;;;;;;;10.13;3.47;;;-3.40;99.90;;;;;;5044932;28;20387;-48
2023/03/11 06:01:10;;;;;;;8.20;1.90;;;-3.40;99.90;;;;;;5072118;28;20041;-51
2023/03/11 06:03:37;;;;;;;5.10;2.00;;;-3.50;99.90;;;;;;5074982;28;20868;-49
2023/03/11 06:06:05;;;;;;;7.32;1.40;;;-3.50;99.90;;;;;;5073682;28;20482;-53
2023/03/11 06:08:33;;;;;;;8.60;1.50;;;-3.50;99.90;;;;;;5073610;28;20578;-45
2023/03/11 06:11:04;;;;;;;6.00;1.80;;;-3.70;99.90;;;;;;5073531;28;20060;-42
2023/03/11 06:13:30;;;;;;;6.40;1.70;;;-3.80;99.90;;;;;;5074099;28;20428;-39
2023/03/11 06:15:56;;;;;;;8.35;1.90;;;-3.90;99.90;;;;;;5073227;28;20524;-47
2023/03/11 06:18:21;;;;;;;5.85;1.55;;;-3.80;99.90;;;;;;5073036;28;20100;-46
2023/03/11 06:20:47;;;;;;;7.20;1.63;;;-3.80;99.90;;;;;;5061423;28;20043;-48
2023/03/11 06:23:13;;;;;;;5.35;2.50;;;-3.60;99.90;;;;;;5074067;28;20474;-53
2023/03/11 06:25:39;;;;;;;8.75;3.30;;;-3.40;99.90;;;;;;5054045;28;20052;-45
2023/03/11 06:28:05;;;;;;;8.93;4.85;;;-3.00;99.90;;;;;;5068585;28;20044;-45
2023/03/11 06:30:31;;;;;;;11.30;3.30;;;-2.40;99.90;;;;;;5074369;28;20036;-42
2023/03/11 06:32:56;;;;;;;10.45;2.60;;;-1.60;99.90;;;;;;5072124;28;20095;-46
2023/03/11 06:35:22;;;;;;;8.15;2.63;;;-0.90;99.90;;;;;;5073728;28;20044;-51
2023/03/11 06:37:48;;;;;;;40.92;5.50;;;-0.50;99.90;;;;;;5059184;28;20049;-47
2023/03/11 06:40:14;;;;;;;117.85;12.48;;;0.00;99.90;;;;;;5049411;28;20044;-51
2023/03/11 06:42:40;;;;;;;7.95;2.33;;;0.30;99.90;;;;;;5052746;28;20056;-49
2023/03/11 06:45:06;;;;;;;8.57;2.25;;;0.70;99.90;;;;;;5054499;28;20045;-42
2023/03/11 06:47:32;;;;;;;7.93;2.17;;;1.00;99.90;;;;;;5053584;28;20087;-46
2023/03/11 06:49:58;;;;;;;4.85;2.17;;;1.00;99.90;;;;;;5059757;28;20521;-52
2023/03/11 06:52:23;;;;;;;5.47;2.08;;;0.90;99.90;;;;;;5063106;28;20141;-51
2023/03/11 06:54:49;;;;;;;5.45;2.25;;;0.80;99.90;;;;;;5052496;28;20080;-53
2023/03/11 06:57:15;;;;;;;8.38;1.90;;;0.70;99.90;;;;;;5047414;28;20099;-45
2023/03/11 06:59:41;;;;;;;10.35;2.67;;;0.60;99.90;;;;;;5059352;28;20043;-41
2023/03/11 07:02:12;;;;;;;11.68;2.53;;;0.60;99.90;;;;;;5073529;28;20436;-56
2023/03/11 07:04:38;;;;;;;16.70;3.13;;;0.60;99.90;;;;;;5072196;28;20048;-57
2023/03/11 07:07:03;;;;;;;7.30;2.40;;;0.50;99.90;;;;;;5060678;28;20048;-49
2023/03/11 07:09:29;;;;;;;13.00;4.47;;;0.50;99.90;;;;;;5056515;28;20490;-52
2023/03/11 07:11:55;;;;;;;10.85;4.13;;;0.50;99.90;;;;;;5055842;28;20163;-50
2023/03/11 07:14:20;;;;;;;67.18;10.07;;;0.40;99.90;;;;;;5056207;28;20045;-49
2023/03/11 07:16:46;;;;;;;27.38;4.95;;;0.40;99.90;;;;;;5056275;28;20098;-49
2023/03/11 07:19:12;;;;;;;9.23;3.60;;;0.40;99.90;;;;;;5057545;28;20195;-55
2023/03/11 07:21:38;;;;;;;11.00;3.20;;;0.30;99.90;;;;;;5056695;28;20037;-59
2023/03/11 07:24:05;;;;;;;70.85;8.48;;;0.30;99.90;;;;;;5057656;28;20513;-44
2023/03/11 07:26:32;;;;;;;10.43;4.57;;;0.40;99.90;;;;;;5056338;28;20106;-46
2023/03/11 07:28:58;;;;;;;7.40;3.80;;;0.40;99.90;;;;;;5057382;28;20083;-56
2023/03/11 07:31:27;;;;;;;7.82;3.13;;;0.50;99.90;;;;;;5056234;28;20479;-51
2023/03/11 07:33:52;;;;;;;7.80;3.25;;;0.40;99.90;;;;;;5056615;28;20041;-43
2023/03/11 07:36:21;;;;;;;5.75;2.95;;;0.40;99.90;;;;;;5053573;28;20546;-52
2023/03/11 07:38:47;;;;;;;6.40;3.70;;;0.50;99.90;;;;;;5054476;28;20045;-45
2023/03/11 07:41:13;;;;;;;7.30;4.05;;;0.50;99.90;;;;;;5054073;28;20399;-47
2023/03/11 07:43:42;;;;;;;20.20;4.40;;;0.60;99.90;;;;;;5055186;28;20040;-59
2023/03/11 07:46:17;;;;;;;14.48;5.55;;;0.70;99.90;;;;;;5054275;28;20135;-59
2023/03/11 07:48:44;;;;;;;12.35;5.55;;;0.70;99.90;;;;;;5053240;28;20106;-50
2023/03/11 07:51:15;;;;;;;7.80;4.75;;;0.80;99.90;;;;;;5060892;28;20053;-55
2023/03/11 07:53:41;;;;;;;8.55;4.40;;;0.90;99.90;;;;;;5050819;28;20040;-45
2023/03/11 07:56:09;;;;;;;10.23;4.15;;;1.00;99.90;;;;;;5050865;28;20071;-57
2023/03/11 07:58:35;;;;;;;6.90;3.35;;;1.10;99.90;;;;;;5055893;28;20044;-56
2023/03/11 08:01:09;;;;;;;12.55;4.22;;;1.20;99.90;;;;;;5054523;28;20751;-46
2023/03/11 08:03:35;;;;;;;9.35;4.45;;;1.30;99.90;;;;;;5053855;28;20426;-57
2023/03/11 08:06:02;;;;;;;10.20;3.83;;;1.30;99.90;;;;;;5054494;28;20125;-45
2023/03/11 08:08:28;;;;;;;10.55;4.32;;;1.50;99.90;;;;;;5052934;28;20048;-57
2023/03/11 08:10:53;;;;;;;8.27;3.88;;;1.50;99.90;;;;;;5053221;28;20086;-49
2023/03/11 08:13:19;;;;;;;6.75;4.60;;;1.60;99.90;;;;;;5054443;28;20554;-49
2023/03/11 08:15:45;;;;;;;7.50;4.00;;;1.70;99.90;;;;;;5058550;28;20047;-51
2023/03/11 08:18:11;;;;;;;9.40;4.10;;;1.80;99.90;;;;;;5058824;28;20048;-44
2023/03/11 08:20:38;;;;;;;8.15;4.32;;;1.90;99.90;;;;;;5056132;28;20515;-59
2023/03/11 08:23:04;;;;;;;7.82;3.55;;;1.90;99.90;;;;;;5088220;27;20140;-60
2023/03/11 08:25:30;;;;;;;14.02;4.22;;;2.00;99.90;;;;;;5058583;28;20048;-54
2023/03/11 08:27:55;;;;;;;7.35;3.00;;;2.30;99.90;;;;;;5057840;28;20192;-53
2023/03/11 08:30:21;;;;;;;7.97;3.75;;;2.50;99.90;;;;;;5055803;28;20052;-43
2023/03/11 08:32:48;;;;;;;11.93;4.47;;;2.70;99.90;;;;;;5055593;28;20126;-46
2023/03/11 08:35:14;;;;;;;7.18;3.30;;;2.80;99.90;;;;;;5057014;28;20067;-55
2023/03/11 08:37:40;;;;;;;8.23;4.00;;;2.90;99.90;;;;;;5051826;28;20048;-60
2023/03/11 08:40:08;;;;;;;7.28;4.25;;;2.90;99.90;;;;;;5055088;28;20087;-54
2023/03/11 08:42:34;;;;;;;9.25;3.65;;;3.00;99.90;;;;;;5054813;28;20048;-46
2023/03/11 08:44:59;;;;;;;6.75;3.50;;;3.10;99.90;;;;;;5054944;28;20041;-45
2023/03/11 08:47:25;;;;;;;6.03;3.92;;;3.20;99.90;;;;;;5064912;28;20047;-52
2023/03/11 08:49:51;;;;;;;10.57;4.43;;;3.10;99.90;;;;;;5074943;28;20680;-48
2023/03/11 08:52:16;;;;;;;7.18;3.00;;;3.10;99.90;;;;;;5070699;28;20052;-49
2023/03/11 08:54:42;;;;;;;7.20;3.35;;;3.10;99.90;;;;;;5054452;28;20091;-51
2023/03/11 08:57:08;;;;;;;7.43;2.67;;;3.20;99.90;;;;;;5048007;28;20082;-49
2023/03/11 08:59:34;;;;;;;7.70;3.45;;;3.30;99.90;;;;;;5055915;28;20056;-52
2023/03/11 09:02:00;;;;;;;8.38;2.50;;;3.40;99.90;;;;;;5053912;28;20570;-49
2023/03/11 09:04:25;;;;;;;7.03;2.53;;;3.40;99.90;;;;;;5041204;28;20045;-50
2023/03/11 09:06:51;;;;;;;6.00;2.35;;;3.50;99.90;;;;;;5053726;28;20081;-54
2023/03/11 09:09:19;;;;;;;8.48;2.60;;;3.60;99.90;;;;;;5054679;28;20522;-52
2023/03/11 09:11:48;;;;;;;9.93;2.38;;;3.60;99.90;;;;;;5057111;28;20044;-42
2023/03/11 09:14:14;;;;;;;8.50;2.45;;;3.40;99.90;;;;;;5075066;28;20406;-50
2023/03/11 09:16:40;;;;;;;6.90;2.50;;;3.50;99.90;;;;;;5070673;28;20052;-56
2023/03/11 09:19:06;;;;;;;6.68;2.72;;;3.40;99.90;;;;;;5064905;28;20055;-51
2023/03/11 09:21:33;;;;;;;11.80;2.72;;;3.40;99.90;;;;;;5072700;28;20239;-49
2023/03/11 09:23:59;;;;;;;8.98;2.30;;;3.60;99.90;;;;;;5065806;28;20155;-51
2023/03/11 09:26:25;;;;;;;6.97;3.20;;;3.70;99.90;;;;;;5053263;28;20474;-44
2023/03/11 09:28:50;;;;;;;8.60;3.35;;;3.90;99.90;;;;;;5053771;28;20452;-52
2023/03/11 09:31:17;;;;;;;9.63;3.33;;;4.10;99.90;;;;;;5053136;28;20561;-43
2023/03/11 09:33:43;;;;;;;8.90;3.10;;;4.30;99.90;;;;;;5052978;28;20048;-50
2023/03/11 09:36:14;;;;;;;7.30;2.72;;;4.20;99.90;;;;;;5056296;28;20044;-57
2023/03/11 09:38:41;;;;;;;7.60;2.80;;;4.40;99.90;;;;;;5043084;28;20047;-57
2023/03/11 09:41:15;;;;;;;9.57;2.65;;;4.60;99.90;;;;;;5068628;28;20414;-56
2023/03/11 09:44:07;;;;;;;9.63;3.22;;;4.50;99.90;;;;;;5066086;28;20059;-51
2023/03/11 09:46:38;;;;;;;8.30;2.70;;;4.50;99.90;;;;;;5041170;28;20538;-50
2023/03/11 09:49:12;;;;;;;10.43;2.90;;;4.50;99.90;;;;;;5056261;28;20124;-47
2023/03/11 09:51:45;;;;;;;11.32;2.50;;;4.70;99.90;;;;;;5073376;28;20059;-55
2023/03/11 09:54:12;;;;;;;9.23;2.75;;;4.60;99.90;;;;;;5073431;28;20047;-49
2023/03/11 09:56:41;;;;;;;9.95;2.38;;;4.60;99.90;;;;;;5073942;28;20112;-53
2023/03/11 09:59:29;;;;;;;9.52;4.07;;;4.50;99.90;;;;;;5074824;28;20048;-49
2023/03/11 10:01:55;;;;;;;8.18;2.42;;;4.80;99.90;;;;;;5073374;28;20048;-43
2023/03/11 10:05:11;;;;;;;11.63;2.53;;;4.70;99.90;;;;;;5059881;28;20544;-49
2023/03/11 10:07:40;;;;;;;8.57;2.20;;;4.70;99.90;;;;;;5050680;28;20653;-55
2023/03/11 10:10:11;;;;;;;7.75;3.58;;;4.80;99.90;;;;;;5047138;28;20057;-44
2023/03/11 10:12:59;;;;;;;17.25;9.40;;;4.90;99.90;;;;;;5025143;28;20051;-59
2023/03/11 10:15:50;;;;;;;19.15;11.23;;;5.10;99.90;;;;;;5067014;28;20045;-52
2023/03/11 10:18:25;;;;;;;15.82;10.02;;;5.10;99.90;;;;;;5032779;28;20057;-44
2023/03/11 10:21:22;;;;;;;14.60;6.32;;;5.30;99.90;;;;;;5030201;28;20519;-52
2023/03/11 10:23:59;;;;;;;29.83;17.27;;;5.40;99.90;;;;;;4951477;28;20073;-52
2023/03/11 10:26:36;;;;;;;41.30;24.55;;;5.40;99.90;;;;;;4951384;28;20050;-47
2023/03/11 10:29:22;;;;;;;12.57;8.40;;;5.50;99.90;;;;;;4951497;28;20070;-49
2023/03/11 10:32:21;;;;;;;76.35;50.83;;;5.20;99.90;;;;;;4951377;28;20054;-49
2023/03/11 10:35:18;;;;;;;26.08;18.17;;;5.20;99.90;;;;;;4893985;29;20116;-45
2023/03/11 10:37:58;;;;;;;24.15;17.10;;;5.00;99.90;;;;;;4893865;29;20062;-54
2023/03/11 10:40:33;;;;;;;12.90;8.98;;;5.10;99.90;;;;;;4877011;29;20119;-53
2023/03/11 10:43:08;;;;;;;16.70;12.05;;;4.90;99.90;;;;;;4897656;29;20263;-53
2023/03/11 10:45:42;;;;;;;32.65;25.30;;;5.10;99.90;;;;;;4907275;29;20055;-51
2023/03/11 10:48:10;;;;;;;10.90;5.47;;;5.10;99.90;;;;;;4936507;29;20145;-53
2023/03/11 10:50:36;;;;;;;23.67;16.30;;;5.10;99.90;;;;;;4936782;29;20117;-46
2023/03/11 10:53:07;;;;;;;5.65;3.20;;;5.20;99.90;;;;;;4934960;29;20597;-43
2023/03/11 10:55:33;;;;;;;9.02;2.88;;;5.50;99.90;;;;;;4935776;29;20071;-51
2023/03/11 10:58:10;;;;;;;10.95;5.38;;;5.70;99.90;;;;;;4935248;29;20569;-53
2023/03/11 11:00:36;;;;;;;6.70;2.92;;;5.90;99.90;;;;;;4966553;28;20068;-45
2023/03/11 11:03:03;;;;;;;15.63;9.02;;;5.60;99.90;;;;;;5012348;28;20045;-47
2023/03/11 11:05:31;;;;;;;38.40;27.23;;;5.80;99.90;;;;;;4996701;28;20111;-51
2023/03/11 11:08:05;;;;;;;31.48;21.98;;;5.70;99.90;;;;;;5013644;28;20440;-51
2023/03/11 11:10:33;;;;;;;42.72;26.95;;;5.70;99.90;;;;;;5020983;28;20068;-53
2023/03/11 11:13:12;;;;;;;19.58;12.00;;;5.70;99.90;;;;;;5058826;28;20393;-47
2023/03/11 11:15:53;;;;;;;17.88;12.07;;;5.80;99.90;;;;;;5038476;28;20060;-48
2023/03/11 11:18:27;;;;;;;14.95;8.68;;;5.80;99.90;;;;;;5040693;28;20047;-52
2023/03/11 11:21:14;;;;;;;12.00;7.05;;;5.80;99.90;;;;;;5048747;28;20049;-49
2023/03/11 11:23:45;;;;;;;51.28;38.53;;;5.80;99.90;;;;;;5048559;28;20827;-51
2023/03/11 11:26:23;;;;;;;25.50;19.80;;;5.70;99.90;;;;;;5056213;28;20094;-58
2023/03/11 11:29:14;;;;;;;8.90;5.97;;;5.60;99.90;;;;;;5046884;28;20049;-47
2023/03/11 11:31:44;;;;;;;12.77;11.27;;;5.50;99.90;;;;;;5050010;28;20495;-50
2023/03/11 11:34:30;;;;;;;12.90;9.57;;;5.50;99.90;;;;;;5036991;28;20526;-52
2023/03/11 11:36:58;;;;;;;12.20;10.88;;;5.50;99.90;;;;;;5037094;28;20407;-50
2023/03/11 11:39:27;;;;;;;6.43;3.53;;;5.50;99.90;;;;;;5081286;28;20097;-49
2023/03/11 11:41:55;;;;;;;7.30;3.85;;;5.60;99.90;;;;;;5052865;28;20051;-54
2023/03/11 11:44:25;;;;;;;10.15;6.55;;;5.60;99.90;;;;;;5052789;28;20049;-46
2023/03/11 11:47:06;;;;;;;6.68;2.85;;;5.70;99.90;;;;;;5044458;28;20059;-49
2023/03/11 11:49:34;;;;;;;5.60;3.47;;;5.80;99.90;;;;;;5040971;28;20054;-50
2023/03/11 11:52:14;;;;;;;4.82;2.05;;;5.90;99.90;;;;;;5052766;28;20059;-50
2023/03/11 11:54:48;;;;;;;7.13;2.63;;;6.00;99.90;;;;;;5052700;28;20040;-49
2023/03/11 11:57:16;;;;;;;11.45;4.00;;;6.00;99.90;;;;;;5065353;28;20241;-49
2023/03/11 11:59:43;;;;;;;7.50;2.47;;;5.90;99.90;;;;;;5076433;28;20055;-44
2023/03/11 12:02:15;;;;;;;4.57;1.52;;;5.90;99.90;;;;;;5076159;28;20051;-51
2023/03/11 12:04:49;;;;;;;5.35;4.80;;;5.90;99.90;;;;;;5067686;28;20064;-54
2023/03/11 12:07:40;;;;;;;5.43;2.30;;;5.90;99.90;;;;;;5054982;28;20553;-44
2023/03/11 12:10:25;;;;;;;6.32;1.65;;;5.80;99.90;;;;;;5055791;28;20596;-53
2023/03/11 12:13:04;;;;;;;7.57;1.50;;;5.90;99.90;;;;;;5054157;28;20471;-52
2023/03/11 12:15:43;;;;;;;8.48;1.55;;;5.80;99.90;;;;;;5053494;28;20134;-42
2023/03/11 12:18:18;;;;;;;5.40;2.22;;;5.60;99.90;;;;;;5055608;28;20052;-51
2023/03/11 12:20:50;;;;;;;5.32;1.15;;;5.60;99.90;;;;;;5054647;28;20056;-47
2023/03/11 12:23:43;;;;;;;3.88;1.13;;;5.60;99.90;;;;;;5053502;28;20234;-49
2023/03/11 12:26:24;;;;;;;4.45;1.23;;;5.50;99.90;;;;;;5055213;28;20478;-48
2023/03/11 12:29:21;;;;;;;4.65;1.00;;;5.50;99.90;;;;;;5045636;28;20115;-51
2023/03/11 12:31:47;;;;;;;4.88;1.23;;;5.40;99.90;;;;;;5048837;28;20048;-54
2023/03/11 12:34:19;;;;;;;6.50;1.42;;;5.40;99.90;;;;;;5075067;28;20043;-52
2023/03/11 12:36:47;;;;;;;3.58;1.52;;;5.50;99.90;;;;;;5063585;28;20617;-46
2023/03/11 12:39:23;;;;;;;5.80;2.70;;;5.50;99.90;;;;;;5049741;28;20059;-53
2023/03/11 12:42:20;;;;;;;3.83;1.25;;;5.50;99.90;;;;;;5054127;28;20056;-51
2023/03/11 12:44:47;;;;;;;4.65;1.15;;;5.40;99.90;;;;;;5062798;28;20132;-45
2023/03/11 12:47:12;;;;;;;8.82;1.30;;;5.50;99.90;;;;;;5073124;28;20044;-51
2023/03/11 12:49:45;;;;;;;5.28;1.30;;;5.40;99.90;;;;;;5061397;28;20094;-54
2023/03/11 12:52:10;;;;;;;5.13;1.55;;;5.40;99.90;;;;;;5058102;28;20063;-49
2023/03/11 12:54:38;;;;;;;5.93;1.30;;;5.50;99.90;;;;;;5055174;28;20052;-49
2023/03/11 12:57:33;;;;;;;34.30;20.45;;;5.40;99.90;;;;;;5054281;28;20506;-48
2023/03/11 13:00:21;;;;;;;10.40;6.40;;;5.40;99.90;;;;;;5054749;28;20133;-46